Aviation Digital Data Service (ADDS)

Output produced by METARs form (0017 UTC 07 July 2015)
found at http://aviationweather.gov/adds/metars/
 
KORD 062336Z 0700/0806 18012KT P6SM SCT050 OVC100 
     FM070100 19012KT P6SM VCSH SCT040 OVC080 
     TEMPO 0702/0704 3SM RA BKN025 OVC035 
     FM070500 23011KT 5SM -RA BR SCT008 BKN015 OVC035 
     FM070900 27010KT 6SM BR VCSH BKN010 OVC030 
     FM071200 35013KT P6SM BKN015 OVC035 
     FM071600 02015G22KT P6SM SCT035 BKN050 
     FM072300 04010KT P6SM SCT050